sensor_id;sensor_type;location;lat;lon;timestamp;pressure;altitude;pressure_sealevel;temperature;humidity
54439;BME280;40347;53.848;27.498;2023-04-09T00:01:00;1020.9;;;10.3;70.7
54439;BME280;40347;53.848;27.498;2023-04-09T00:05:55;1020.9;;;10.3;70.8
54439;BME280;40347;53.848;27.498;2023-04-09T00:10:56;1020.9;;;10.4;70.6
54439;BME280;40347;53.848;27.498;2023-04-09T00:16:07;1020.9;;;10.6;70.1
54439;BME280;40347;53.848;27.498;2023-04-09T00:21:13;1020.9;;;10.7;69.5
54439;BME280;40347;53.848;27.498;2023-04-09T00:25:55;1020.8;;;10.8;69.2
54439;BME280;40347;53.848;27.498;2023-04-09T00:30:55;1020.8;;;10.9;68.9
54439;BME280;40347;53.848;27.498;2023-04-09T00:35:55;1020.8;;;10.8;68.6
54439;BME280;40347;53.848;27.498;2023-04-09T00:40:55;1020.8;;;10.8;68.6
54439;BME280;40347;53.848;27.498;2023-04-09T00:46:07;1020.8;;;10.8;68.4
54439;BME280;40347;53.848;27.498;2023-04-09T00:50:55;1020.8;;;10.5;68.7
54439;BME280;40347;53.848;27.498;2023-04-09T00:55:55;1020.8;;;10.4;68.8
54439;BME280;40347;53.848;27.498;2023-04-09T01:00:55;1020.8;;;10.2;68.9
54439;BME280;40347;53.848;27.498;2023-04-09T01:06:09;1020.8;;;10.2;69.3
54439;BME280;40347;53.848;27.498;2023-04-09T01:11:09;1020.8;;;10.1;69.4
54439;BME280;40347;53.848;27.498;2023-04-09T01:15:55;1020.9;;;10.1;69.3
54439;BME280;40347;53.848;27.498;2023-04-09T01:21:12;1020.8;;;10;69.2
54439;BME280;40347;53.848;27.498;2023-04-09T01:26:42;1020.8;;;9.9;69.2
54439;BME280;40347;53.848;27.498;2023-04-09T01:31:08;1020.8;;;9.9;69.3
54439;BME280;40347;53.848;27.498;2023-04-09T01:35:55;1020.9;;;9.8;69.4
54439;BME280;40347;53.848;27.498;2023-04-09T01:40:55;1020.9;;;9.8;69.5
54439;BME280;40347;53.848;27.498;2023-04-09T01:46:11;1020.9;;;9.8;69.5
54439;BME280;40347;53.848;27.498;2023-04-09T01:50:55;1020.9;;;9.6;69.5
54439;BME280;40347;53.848;27.498;2023-04-09T01:56:23;1020.9;;;9.5;69.5
54439;BME280;40347;53.848;27.498;2023-04-09T02:01:15;1020.9;;;9.5;69.7
54439;BME280;40347;53.848;27.498;2023-04-09T02:06:24;1020.8;;;9.6;69.7
54439;BME280;40347;53.848;27.498;2023-04-09T02:10:57;1020.9;;;9.5;69.6
54439;BME280;40347;53.848;27.498;2023-04-09T02:16:01;1020.9;;;9.5;69.5
54439;BME280;40347;53.848;27.498;2023-04-09T02:20:55;1020.8;;;9.4;69.3
54439;BME280;40347;53.848;27.498;2023-04-09T02:26:15;1020.8;;;9.3;69.2
54439;BME280;40347;53.848;27.498;2023-04-09T02:31:05;1020.8;;;9.3;69
54439;BME280;40347;53.848;27.498;2023-04-09T02:36:05;1020.8;;;9.3;68.5
54439;BME280;40347;53.848;27.498;2023-04-09T02:41:03;1020.8;;;9.4;68.3
54439;BME280;40347;53.848;27.498;2023-04-09T02:45:55;1020.8;;;9.4;67.9
54439;BME280;40347;53.848;27.498;2023-04-09T02:50:55;1020.9;;;9.3;67.8
54439;BME280;40347;53.848;27.498;2023-04-09T02:55:55;1020.8;;;9.3;67.7
54439;BME280;40347;53.848;27.498;2023-04-09T03:00:55;1020.8;;;9.4;67.5
54439;BME280;40347;53.848;27.498;2023-04-09T03:05:55;1020.8;;;9.5;67.2
54439;BME280;40347;53.848;27.498;2023-04-09T03:11:11;1020.8;;;9.5;67
54439;BME280;40347;53.848;27.498;2023-04-09T03:15:55;1020.8;;;9.6;66.6
54439;BME280;40347;53.848;27.498;2023-04-09T03:21:06;1020.8;;;9.7;66.4
54439;BME280;40347;53.848;27.498;2023-04-09T03:26:11;1020.8;;;9.7;66
54439;BME280;40347;53.848;27.498;2023-04-09T03:30:55;1020.8;;;9.9;65.9
54439;BME280;40347;53.848;27.498;2023-04-09T03:36:11;1020.8;;;9.9;66.2
54439;BME280;40347;53.848;27.498;2023-04-09T03:41:07;1020.9;;;9.8;66.1
54439;BME280;40347;53.848;27.498;2023-04-09T03:46:10;1020.9;;;9.8;66
54439;BME280;40347;53.848;27.498;2023-04-09T03:50:55;1020.9;;;9.9;65.9
54439;BME280;40347;53.848;27.498;2023-04-09T03:56:13;1020.8;;;10;65.8
54439;BME280;40347;53.848;27.498;2023-04-09T04:01:09;1020.8;;;10.2;65.6
54439;BME280;40347;53.848;27.498;2023-04-09T04:06:13;1020.9;;;10.3;65.2
54439;BME280;40347;53.848;27.498;2023-04-09T04:10:55;1020.9;;;10.3;64.7
54439;BME280;40347;53.848;27.498;2023-04-09T04:16:07;1020.9;;;10.5;64.6
54439;BME280;40347;53.848;27.498;2023-04-09T04:21:15;1020.9;;;10.7;64.6
54439;BME280;40347;53.848;27.498;2023-04-09T04:26:31;1020.9;;;10.8;64.5
54439;BME280;40347;53.848;27.498;2023-04-09T04:31:29;1020.9;;;11.1;64.2
54439;BME280;40347;53.848;27.498;2023-04-09T04:36:02;1020.9;;;11.3;63.4
54439;BME280;40347;53.848;27.498;2023-04-09T04:41:11;1020.9;;;11.5;62.5
54439;BME280;40347;53.848;27.498;2023-04-09T04:45:55;1021;;;11.8;61.8
54439;BME280;40347;53.848;27.498;2023-04-09T04:51:07;1020.9;;;12.1;61.3
54439;BME280;40347;53.848;27.498;2023-04-09T04:55:55;1021;;;12.3;61.1
54439;BME280;40347;53.848;27.498;2023-04-09T05:01:11;1021;;;12.6;58.5
54439;BME280;40347;53.848;27.498;2023-04-09T05:06:11;1021;;;12.6;58.1
54439;BME280;40347;53.848;27.498;2023-04-09T05:10:55;1021;;;12.8;58.2
54439;BME280;40347;53.848;27.498;2023-04-09T05:15:55;1021.1;;;13.2;57.9
54439;BME280;40347;53.848;27.498;2023-04-09T05:20:55;1021.1;;;13.8;57.1
54439;BME280;40347;53.848;27.498;2023-04-09T05:25:55;1021.1;;;14.2;55.9
54439;BME280;40347;53.848;27.498;2023-04-09T05:31:23;1021.1;;;14.7;54.8
54439;BME280;40347;53.848;27.498;2023-04-09T05:35:55;1021.1;;;15.1;54
54439;BME280;40347;53.848;27.498;2023-04-09T05:40:55;1021.2;;;15.2;53.4
54439;BME280;40347;53.848;27.498;2023-04-09T05:46:01;1021.2;;;15.3;53.5
54439;BME280;40347;53.848;27.498;2023-04-09T05:50:55;1021.2;;;15.4;52.7
54439;BME280;40347;53.848;27.498;2023-04-09T05:55:55;1021.2;;;15.5;52.6
54439;BME280;40347;53.848;27.498;2023-04-09T06:00:55;1021.2;;;15.6;52
54439;BME280;40347;53.848;27.498;2023-04-09T06:06:07;1021.2;;;15.6;51.3
54439;BME280;40347;53.848;27.498;2023-04-09T06:10:55;1021.2;;;15.4;51.4
54439;BME280;40347;53.848;27.498;2023-04-09T06:15:55;1021.2;;;15.3;51.4
54439;BME280;40347;53.848;27.498;2023-04-09T06:21:11;1021.3;;;15.3;52
54439;BME280;40347;53.848;27.498;2023-04-09T06:26:29;1021.3;;;15;50.8
54439;BME280;40347;53.848;27.498;2023-04-09T06:31:23;1021.3;;;14.8;50.8
54439;BME280;40347;53.848;27.498;2023-04-09T06:35:55;1021.3;;;14.5;52.2
54439;BME280;40347;53.848;27.498;2023-04-09T06:41:23;1021.4;;;14.2;52.4
54439;BME280;40347;53.848;27.498;2023-04-09T06:45:55;1021.5;;;14.1;52.5
54439;BME280;40347;53.848;27.498;2023-04-09T06:51:01;1021.6;;;14;52.8
54439;BME280;40347;53.848;27.498;2023-04-09T06:55:55;1021.6;;;13.9;52.6
54439;BME280;40347;53.848;27.498;2023-04-09T07:01:07;1021.6;;;13.8;52.1
54439;BME280;40347;53.848;27.498;2023-04-09T07:05:55;1021.6;;;13.8;52.1
54439;BME280;40347;53.848;27.498;2023-04-09T07:11:13;1021.7;;;14.1;52
54439;BME280;40347;53.848;27.498;2023-04-09T07:15:55;1021.6;;;14.3;51.5
54439;BME280;40347;53.848;27.498;2023-04-09T07:21:11;1021.7;;;14.4;51.3
54439;BME280;40347;53.848;27.498;2023-04-09T07:25:55;1021.7;;;14.5;51.4
54439;BME280;40347;53.848;27.498;2023-04-09T07:31:21;1021.7;;;14.6;51
54439;BME280;40347;53.848;27.498;2023-04-09T07:36:15;1021.7;;;14.8;50.5
54439;BME280;40347;53.848;27.498;2023-04-09T07:41:37;1021.7;;;14.9;50
54439;BME280;40347;53.848;27.498;2023-04-09T07:45:55;1021.7;;;15.2;50
54439;BME280;40347;53.848;27.498;2023-04-09T07:50:55;1021.7;;;15.4;49.6
54439;BME280;40347;53.848;27.498;2023-04-09T07:55:55;1021.7;;;15.6;49.1
54439;BME280;40347;53.848;27.498;2023-04-09T08:01:03;1021.7;;;15.7;48.1
54439;BME280;40347;53.848;27.498;2023-04-09T08:06:31;1021.7;;;16;47.2
54439;BME280;40347;53.848;27.498;2023-04-09T08:11:07;1021.7;;;16.2;46.9
54439;BME280;40347;53.848;27.498;2023-04-09T08:16:13;1021.6;;;16.3;44.4
54439;BME280;40347;53.848;27.498;2023-04-09T08:21:11;1021.7;;;16.4;44.5
54439;BME280;40347;53.848;27.498;2023-04-09T08:25:55;1021.6;;;16.6;45
54439;BME280;40347;53.848;27.498;2023-04-09T08:31:01;1021.6;;;16.8;43.3
54439;BME280;40347;53.848;27.498;2023-04-09T08:35:55;1021.6;;;17;44
54439;BME280;40347;53.848;27.498;2023-04-09T08:41:16;1021.5;;;17.1;43.5
54439;BME280;40347;53.848;27.498;2023-04-09T08:45:55;1021.5;;;17.1;42.6
54439;BME280;40347;53.848;27.498;2023-04-09T08:50:55;1021.6;;;17.2;42.3
54439;BME280;40347;53.848;27.498;2023-04-09T08:56:13;1021.6;;;17.4;43.4
54439;BME280;40347;53.848;27.498;2023-04-09T09:01:24;1021.6;;;17.5;42.7
54439;BME280;40347;53.848;27.498;2023-04-09T09:06:19;1021.6;;;17.8;42.9
54439;BME280;40347;53.848;27.498;2023-04-09T09:10:55;1021.5;;;18;42.6
54439;BME280;40347;53.848;27.498;2023-04-09T09:16:10;1021.5;;;18.1;41.6
54439;BME280;40347;53.848;27.498;2023-04-09T09:21:08;1021.5;;;18.1;41.2
54439;BME280;40347;53.848;27.498;2023-04-09T09:26:11;1021.5;;;18.2;41.7
54439;BME280;40347;53.848;27.498;2023-04-09T09:31:08;1021.5;;;18.4;41.5
54439;BME280;40347;53.848;27.498;2023-04-09T09:35:55;1021.5;;;18.6;41.3
54439;BME280;40347;53.848;27.498;2023-04-09T09:40:55;1021.5;;;18.7;40.4
54439;BME280;40347;53.848;27.498;2023-04-09T09:45:55;1021.4;;;18.8;39.8
54439;BME280;40347;53.848;27.498;2023-04-09T09:50:55;1021.4;;;18.9;40
54439;BME280;40347;53.848;27.498;2023-04-09T09:55:56;1021.4;;;18.9;40.2
54439;BME280;40347;53.848;27.498;2023-04-09T10:00:55;1021.4;;;19;40.5
54439;BME280;40347;53.848;27.498;2023-04-09T10:06:27;1021.4;;;19;40.4
54439;BME280;40347;53.848;27.498;2023-04-09T10:11:04;1021.4;;;19;39.9
54439;BME280;40347;53.848;27.498;2023-04-09T10:16:07;1021.3;;;18.9;40.3
54439;BME280;40347;53.848;27.498;2023-04-09T10:20:57;1021.3;;;18.7;40
54439;BME280;40347;53.848;27.498;2023-04-09T10:26:24;1021.3;;;18.6;40.5
54439;BME280;40347;53.848;27.498;2023-04-09T10:31:07;1021.3;;;18.6;40.6
54439;BME280;40347;53.848;27.498;2023-04-09T10:36:04;1021.2;;;18.6;40.7
54439;BME280;40347;53.848;27.498;2023-04-09T10:41:23;1021.2;;;18.5;40.5
54439;BME280;40347;53.848;27.498;2023-04-09T10:45:56;1021.2;;;18.4;41.2
54439;BME280;40347;53.848;27.498;2023-04-09T10:51:13;1021.2;;;18.4;40.9
54439;BME280;40347;53.848;27.498;2023-04-09T10:56:13;1021.2;;;18.5;41.6
54439;BME280;40347;53.848;27.498;2023-04-09T11:01:18;1021.2;;;18.5;41.6
54439;BME280;40347;53.848;27.498;2023-04-09T11:06:12;1021.1;;;18.5;41.8
54439;BME280;40347;53.848;27.498;2023-04-09T11:11:11;1021;;;18.5;41.7
54439;BME280;40347;53.848;27.498;2023-04-09T11:16:20;1021;;;18.6;42
54439;BME280;40347;53.848;27.498;2023-04-09T11:21:07;1021;;;18.7;42.1
54439;BME280;40347;53.848;27.498;2023-04-09T11:25:55;1021;;;18.8;42
54439;BME280;40347;53.848;27.498;2023-04-09T11:31:11;1020.9;;;18.9;41.8
54439;BME280;40347;53.848;27.498;2023-04-09T11:35:55;1020.9;;;19;41.6
54439;BME280;40347;53.848;27.498;2023-04-09T11:40:56;1020.8;;;19.1;41.4
54439;BME280;40347;53.848;27.498;2023-04-09T11:46:41;1020.8;;;19.2;41.4
54439;BME280;40347;53.848;27.498;2023-04-09T11:51:01;1020.8;;;19.4;41.1
54439;BME280;40347;53.848;27.498;2023-04-09T11:55:55;1020.8;;;19.6;41
54439;BME280;40347;53.848;27.498;2023-04-09T12:01:05;1020.7;;;19.7;40
54439;BME280;40347;53.848;27.498;2023-04-09T12:05:55;1020.6;;;19.9;39.8
54439;BME280;40347;53.848;27.498;2023-04-09T12:10:55;1020.6;;;20.1;39.6
54439;BME280;40347;53.848;27.498;2023-04-09T12:16:03;1020.5;;;20.5;39.3
54439;BME280;40347;53.848;27.498;2023-04-09T12:20:55;1020.5;;;20.8;38.8
54439;BME280;40347;53.848;27.498;2023-04-09T12:26:03;1020.5;;;21.1;39
54439;BME280;40347;53.848;27.498;2023-04-09T12:30:55;1020.5;;;21.1;38.6
54439;BME280;40347;53.848;27.498;2023-04-09T12:35:55;1020.5;;;20.8;38.9
54439;BME280;40347;53.848;27.498;2023-04-09T12:41:12;1020.5;;;20.4;39.6
54439;BME280;40347;53.848;27.498;2023-04-09T12:45:55;1020.6;;;19.8;39.9
54439;BME280;40347;53.848;27.498;2023-04-09T12:50:55;1020.6;;;19.2;40.9
54439;BME280;40347;53.848;27.498;2023-04-09T12:55:55;1020.5;;;18.6;41.4
54439;BME280;40347;53.848;27.498;2023-04-09T13:01:07;1020.6;;;18.3;40.5
54439;BME280;40347;53.848;27.498;2023-04-09T13:05:55;1020.6;;;18.1;41
54439;BME280;40347;53.848;27.498;2023-04-09T13:10:55;1020.6;;;18.1;40.9
54439;BME280;40347;53.848;27.498;2023-04-09T13:16:06;1020.6;;;18.3;41
54439;BME280;40347;53.848;27.498;2023-04-09T13:21:27;1020.6;;;18.4;40.9
54439;BME280;40347;53.848;27.498;2023-04-09T13:26:07;1020.6;;;18.4;40.7
54439;BME280;40347;53.848;27.498;2023-04-09T13:31:02;1020.6;;;18.4;40.1
54439;BME280;40347;53.848;27.498;2023-04-09T13:36:07;1020.5;;;18.5;40.1
54439;BME280;40347;53.848;27.498;2023-04-09T13:40:55;1020.5;;;18.4;40.2
54439;BME280;40347;53.848;27.498;2023-04-09T13:45:55;1020.5;;;18.3;40.3
54439;BME280;40347;53.848;27.498;2023-04-09T13:51:04;1020.5;;;18.3;40.1
54439;BME280;40347;53.848;27.498;2023-04-09T13:55:55;1020.5;;;18.3;39.8
54439;BME280;40347;53.848;27.498;2023-04-09T14:01:09;1020.5;;;18.3;39.8
54439;BME280;40347;53.848;27.498;2023-04-09T14:06:13;1020.4;;;18.2;39.9
54439;BME280;40347;53.848;27.498;2023-04-09T14:11:19;1020.4;;;18.2;40.2
54439;BME280;40347;53.848;27.498;2023-04-09T14:15:56;1020.3;;;18.2;40.5
54439;BME280;40347;53.848;27.498;2023-04-09T14:20:55;1020.3;;;18;40.5
54439;BME280;40347;53.848;27.498;2023-04-09T14:25:56;1020.3;;;17.9;41.1
54439;BME280;40347;53.848;27.498;2023-04-09T14:31:02;1020.3;;;17.7;41.2
54439;BME280;40347;53.848;27.498;2023-04-09T14:36:23;1020.3;;;17.6;41.4
54439;BME280;40347;53.848;27.498;2023-04-09T14:41:16;1020.3;;;17.6;41.6
54439;BME280;40347;53.848;27.498;2023-04-09T14:46:21;1020.3;;;17.5;41.8
54439;BME280;40347;53.848;27.498;2023-04-09T14:51:10;1020.3;;;17.5;42.1
54439;BME280;40347;53.848;27.498;2023-04-09T14:56:04;1020.3;;;17.5;42.4
54439;BME280;40347;53.848;27.498;2023-04-09T15:00:55;1020.3;;;17.7;42.4
54439;BME280;40347;53.848;27.498;2023-04-09T15:06:16;1020.3;;;17.8;42.5
54439;BME280;40347;53.848;27.498;2023-04-09T15:11:08;1020.3;;;17.6;43.5
54439;BME280;40347;53.848;27.498;2023-04-09T15:15:56;1020.3;;;17.2;44.4
54439;BME280;40347;53.848;27.498;2023-04-09T15:20:55;1020.4;;;16.8;45.2
54439;BME280;40347;53.848;27.498;2023-04-09T15:26:06;1020.3;;;16.5;46.4
54439;BME280;40347;53.848;27.498;2023-04-09T15:30:56;1020.3;;;16.3;47.3
54439;BME280;40347;53.848;27.498;2023-04-09T15:35:56;1020.3;;;16.2;47.5
54439;BME280;40347;53.848;27.498;2023-04-09T15:41:08;1020.4;;;16.1;47.8
54439;BME280;40347;53.848;27.498;2023-04-09T15:46:07;1020.3;;;16;48.6
54439;BME280;40347;53.848;27.498;2023-04-09T15:51:06;1020.3;;;15.9;49
54439;BME280;40347;53.848;27.498;2023-04-09T15:56:09;1020.3;;;15.8;49.2
54439;BME280;40347;53.848;27.498;2023-04-09T16:01:06;1020.3;;;15.7;49.5
54439;BME280;40347;53.848;27.498;2023-04-09T16:05:56;1020.4;;;15.5;50.2
54439;BME280;40347;53.848;27.498;2023-04-09T16:11:02;1020.4;;;15.5;50.6
54439;BME280;40347;53.848;27.498;2023-04-09T16:16:06;1020.4;;;15.4;51.2
54439;BME280;40347;53.848;27.498;2023-04-09T16:20:56;1020.4;;;15.2;51.8
54439;BME280;40347;53.848;27.498;2023-04-09T16:25:56;1020.4;;;15.2;51.8
54439;BME280;40347;53.848;27.498;2023-04-09T16:31:12;1020.5;;;15.1;52.2
54439;BME280;40347;53.848;27.498;2023-04-09T16:36:12;1020.5;;;14.9;52.4
54439;BME280;40347;53.848;27.498;2023-04-09T16:41:04;1020.5;;;14.7;53
54439;BME280;40347;53.848;27.498;2023-04-09T16:45:56;1020.6;;;14.6;53.2
54439;BME280;40347;53.848;27.498;2023-04-09T16:51:16;1020.6;;;14.4;53.6
54439;BME280;40347;53.848;27.498;2023-04-09T16:55:56;1020.6;;;14.4;53.8
54439;BME280;40347;53.848;27.498;2023-04-09T17:01:12;1020.6;;;14.2;53.7
54439;BME280;40347;53.848;27.498;2023-04-09T17:06:06;1020.7;;;14.1;53.6
54439;BME280;40347;53.848;27.498;2023-04-09T17:11:28;1020.7;;;14;53.5
54439;BME280;40347;53.848;27.498;2023-04-09T17:16:04;1020.8;;;13.9;53.8
54439;BME280;40347;53.848;27.498;2023-04-09T17:20:56;1020.8;;;13.7;54.1
54439;BME280;40347;53.848;27.498;2023-04-09T17:26:18;1020.8;;;13.7;54.3
54439;BME280;40347;53.848;27.498;2023-04-09T17:31:10;1020.9;;;13.6;54.3
54439;BME280;40347;53.848;27.498;2023-04-09T17:36:08;1020.9;;;13.5;54.9
54439;BME280;40347;53.848;27.498;2023-04-09T17:40:56;1020.9;;;13.4;54.9
54439;BME280;40347;53.848;27.498;2023-04-09T17:45:56;1020.9;;;13.3;55.2
54439;BME280;40347;53.848;27.498;2023-04-09T17:51:44;1020.9;;;13.3;55.6
54439;BME280;40347;53.848;27.498;2023-04-09T17:56:16;1021;;;13.3;55.4
54439;BME280;40347;53.848;27.498;2023-04-09T18:01:16;1021;;;13.2;55.5
54439;BME280;40347;53.848;27.498;2023-04-09T18:06:16;1021;;;13.2;55.8
54439;BME280;40347;53.848;27.498;2023-04-09T18:11:12;1021;;;13.1;55.7
54439;BME280;40347;53.848;27.498;2023-04-09T18:15:56;1021.1;;;13.1;55.8
54439;BME280;40347;53.848;27.498;2023-04-09T18:20:56;1021.1;;;13;56
54439;BME280;40347;53.848;27.498;2023-04-09T18:26:08;1021.1;;;13;55.8
54439;BME280;40347;53.848;27.498;2023-04-09T18:31:24;1021.1;;;13;55.8
54439;BME280;40347;53.848;27.498;2023-04-09T18:36:16;1021.1;;;13;56
54439;BME280;40347;53.848;27.498;2023-04-09T18:41:12;1021.1;;;12.9;56.2
54439;BME280;40347;53.848;27.498;2023-04-09T18:46:06;1021.1;;;12.8;56.3
54439;BME280;40347;53.848;27.498;2023-04-09T18:50:56;1021.1;;;12.8;56.3
54439;BME280;40347;53.848;27.498;2023-04-09T18:56:34;1021.1;;;12.8;56.4
54439;BME280;40347;53.848;27.498;2023-04-09T19:01:10;1021.1;;;12.7;56.8
54439;BME280;40347;53.848;27.498;2023-04-09T19:06:17;1021.1;;;12.6;57.2
54439;BME280;40347;53.848;27.498;2023-04-09T19:11:08;1021.2;;;12.6;57.5
54439;BME280;40347;53.848;27.498;2023-04-09T19:15:56;1021.2;;;12.5;58.1
54439;BME280;40347;53.848;27.498;2023-04-09T19:20:56;1021.2;;;12.3;59.2
54439;BME280;40347;53.848;27.498;2023-04-09T19:26:12;1021.1;;;12.2;59.2
54439;BME280;40347;53.848;27.498;2023-04-09T19:30:56;1021.1;;;12.3;58.6
54439;BME280;40347;53.848;27.498;2023-04-09T19:36:18;1021.1;;;12.3;58.6
54439;BME280;40347;53.848;27.498;2023-04-09T19:41:08;1021.1;;;12.3;59.1
54439;BME280;40347;53.848;27.498;2023-04-09T19:45:56;1021;;;12.3;58.9
54439;BME280;40347;53.848;27.498;2023-04-09T19:50:56;1021;;;12.3;58.9
54439;BME280;40347;53.848;27.498;2023-04-09T19:56:32;1021;;;12.2;58.9
54439;BME280;40347;53.848;27.498;2023-04-09T20:01:12;1021.1;;;12.1;59.9
54439;BME280;40347;53.848;27.498;2023-04-09T20:06:08;1021.1;;;11.8;60.8
54439;BME280;40347;53.848;27.498;2023-04-09T20:10:56;1021.1;;;11.8;61.3
54439;BME280;40347;53.848;27.498;2023-04-09T20:16:12;1021.1;;;11.7;61.9
54439;BME280;40347;53.848;27.498;2023-04-09T20:21:18;1021.1;;;11.5;62.6
54439;BME280;40347;53.848;27.498;2023-04-09T20:26:32;1021.1;;;11.4;62.3
54439;BME280;40347;53.848;27.498;2023-04-09T20:30:56;1021.1;;;11.5;62.1
54439;BME280;40347;53.848;27.498;2023-04-09T20:35:56;1021.1;;;11.4;62.7
54439;BME280;40347;53.848;27.498;2023-04-09T20:41:12;1021.1;;;11.3;63.2
54439;BME280;40347;53.848;27.498;2023-04-09T20:46:12;1021;;;11.3;63.5
54439;BME280;40347;53.848;27.498;2023-04-09T20:51:18;1021;;;11.3;63.5
54439;BME280;40347;53.848;27.498;2023-04-09T20:56:08;1021;;;11.3;63.1
54439;BME280;40347;53.848;27.498;2023-04-09T21:01:00;1021;;;11.3;63.1
54439;BME280;40347;53.848;27.498;2023-04-09T21:06:16;1021;;;11.2;63.7
54439;BME280;40347;53.848;27.498;2023-04-09T21:11:18;1021.1;;;11.2;63.9
54439;BME280;40347;53.848;27.498;2023-04-09T21:16:18;1021.1;;;11.1;64.3
54439;BME280;40347;53.848;27.498;2023-04-09T21:20:56;1021.1;;;11.1;64.1
54439;BME280;40347;53.848;27.498;2023-04-09T21:26:06;1021.1;;;11;64.3
54439;BME280;40347;53.848;27.498;2023-04-09T21:31:12;1021.1;;;11.1;64
54439;BME280;40347;53.848;27.498;2023-04-09T21:35:56;1021.1;;;11.1;64.6
54439;BME280;40347;53.848;27.498;2023-04-09T21:41:12;1021.1;;;11.1;64.6
54439;BME280;40347;53.848;27.498;2023-04-09T21:46:08;1021.1;;;11.1;64.1
54439;BME280;40347;53.848;27.498;2023-04-09T21:50:56;1021.1;;;11;64.4
54439;BME280;40347;53.848;27.498;2023-04-09T21:56:12;1021.1;;;11;64.2
54439;BME280;40347;53.848;27.498;2023-04-09T22:01:12;1021;;;11.1;64.3
54439;BME280;40347;53.848;27.498;2023-04-09T22:06:18;1021;;;10.9;64.8
54439;BME280;40347;53.848;27.498;2023-04-09T22:10:56;1021;;;11;64.6
54439;BME280;40347;53.848;27.498;2023-04-09T22:16:34;1021;;;10.9;64.5
54439;BME280;40347;53.848;27.498;2023-04-09T22:21:12;1021;;;10.9;64.8
54439;BME280;40347;53.848;27.498;2023-04-09T22:26:30;1021;;;10.8;65
54439;BME280;40347;53.848;27.498;2023-04-09T22:31:12;1021;;;10.8;65.1
54439;BME280;40347;53.848;27.498;2023-04-09T22:35:56;1021;;;10.8;65.1
54439;BME280;40347;53.848;27.498;2023-04-09T22:40:56;1021;;;10.7;65.3
54439;BME280;40347;53.848;27.498;2023-04-09T22:45:56;1021;;;10.6;65.4
54439;BME280;40347;53.848;27.498;2023-04-09T22:51:02;1021;;;10.6;65.7
54439;BME280;40347;53.848;27.498;2023-04-09T22:55:56;1021;;;10.6;65.4
54439;BME280;40347;53.848;27.498;2023-04-09T23:01:08;1021;;;10.7;65
54439;BME280;40347;53.848;27.498;2023-04-09T23:05:56;1021;;;10.7;64.9
54439;BME280;40347;53.848;27.498;2023-04-09T23:10:56;1020.9;;;10.6;65.3
54439;BME280;40347;53.848;27.498;2023-04-09T23:16:02;1020.9;;;10.5;65.6
54439;BME280;40347;53.848;27.498;2023-04-09T23:21:18;1020.9;;;10.5;65.7
54439;BME280;40347;53.848;27.498;2023-04-09T23:25:56;1020.9;;;10.5;65.9
54439;BME280;40347;53.848;27.498;2023-04-09T23:31:18;1020.9;;;10.4;66.4
54439;BME280;40347;53.848;27.498;2023-04-09T23:36:32;1020.9;;;10.3;66.6
54439;BME280;40347;53.848;27.498;2023-04-09T23:40:56;1020.9;;;10.2;66.8
54439;BME280;40347;53.848;27.498;2023-04-09T23:46:18;1020.8;;;10.2;66.4
54439;BME280;40347;53.848;27.498;2023-04-09T23:51:08;1020.8;;;10.2;66.2
54439;BME280;40347;53.848;27.498;2023-04-09T23:55:56;1020.8;;;10.2;66.5
